sensor_id;sensor_type;location;lat;lon;timestamp;P1;durP1;ratioP1;P2;durP2;ratioP2
77581;SDS011;66726;52.388;9.986;2023-03-15T00:01:29;12.03;;;3.13;;
77581;SDS011;66726;52.388;9.986;2023-03-15T00:04:01;8.03;;;3.17;;
77581;SDS011;66726;52.388;9.986;2023-03-15T00:06:33;9.40;;;2.50;;
77581;SDS011;66726;52.388;9.986;2023-03-15T00:09:06;9.20;;;2.50;;
77581;SDS011;66726;52.388;9.986;2023-03-15T00:11:38;9.80;;;3.07;;
77581;SDS011;66726;52.388;9.986;2023-03-15T00:14:10;7.60;;;2.47;;
77581;SDS011;66726;52.388;9.986;2023-03-15T00:16:42;7.13;;;2.43;;
77581;SDS011;66726;52.388;9.986;2023-03-15T00:19:13;11.80;;;3.27;;
77581;SDS011;66726;52.388;9.986;2023-03-15T00:21:46;10.90;;;2.80;;
77581;SDS011;66726;52.388;9.986;2023-03-15T00:24:19;10.83;;;3.17;;
77581;SDS011;66726;52.388;9.986;2023-03-15T00:26:51;13.47;;;3.57;;
77581;SDS011;66726;52.388;9.986;2023-03-15T00:29:23;12.80;;;4.23;;
77581;SDS011;66726;52.388;9.986;2023-03-15T00:31:54;18.67;;;5.97;;
77581;SDS011;66726;52.388;9.986;2023-03-15T00:34:27;15.70;;;5.77;;
77581;SDS011;66726;52.388;9.986;2023-03-15T00:37:00;16.30;;;4.73;;
77581;SDS011;66726;52.388;9.986;2023-03-15T00:39:33;11.80;;;3.90;;
77581;SDS011;66726;52.388;9.986;2023-03-15T00:42:06;11.50;;;3.90;;
77581;SDS011;66726;52.388;9.986;2023-03-15T00:44:40;8.40;;;3.37;;
77581;SDS011;66726;52.388;9.986;2023-03-15T00:47:13;13.07;;;3.40;;
77581;SDS011;66726;52.388;9.986;2023-03-15T00:49:45;11.63;;;3.27;;
77581;SDS011;66726;52.388;9.986;2023-03-15T00:52:17;10.17;;;2.70;;
77581;SDS011;66726;52.388;9.986;2023-03-15T00:54:53;6.43;;;2.70;;
77581;SDS011;66726;52.388;9.986;2023-03-15T00:57:25;9.30;;;2.27;;
77581;SDS011;66726;52.388;9.986;2023-03-15T00:59:58;8.70;;;2.23;;
77581;SDS011;66726;52.388;9.986;2023-03-15T01:02:31;9.33;;;2.37;;
77581;SDS011;66726;52.388;9.986;2023-03-15T01:05:03;11.00;;;2.60;;
77581;SDS011;66726;52.388;9.986;2023-03-15T01:07:37;8.10;;;2.70;;
77581;SDS011;66726;52.388;9.986;2023-03-15T01:10:12;9.50;;;2.47;;
77581;SDS011;66726;52.388;9.986;2023-03-15T01:12:44;9.03;;;3.47;;
77581;SDS011;66726;52.388;9.986;2023-03-15T01:15:16;12.63;;;3.07;;
77581;SDS011;66726;52.388;9.986;2023-03-15T01:17:48;10.67;;;3.00;;
77581;SDS011;66726;52.388;9.986;2023-03-15T01:20:21;10.57;;;2.50;;
77581;SDS011;66726;52.388;9.986;2023-03-15T01:22:53;14.43;;;3.27;;
77581;SDS011;66726;52.388;9.986;2023-03-15T01:25:26;7.70;;;2.50;;
77581;SDS011;66726;52.388;9.986;2023-03-15T01:27:58;11.73;;;3.00;;
77581;SDS011;66726;52.388;9.986;2023-03-15T01:30:30;11.03;;;2.73;;
77581;SDS011;66726;52.388;9.986;2023-03-15T01:33:02;10.07;;;3.60;;
77581;SDS011;66726;52.388;9.986;2023-03-15T01:35:33;6.87;;;2.70;;
77581;SDS011;66726;52.388;9.986;2023-03-15T01:38:05;10.00;;;3.20;;
77581;SDS011;66726;52.388;9.986;2023-03-15T01:40:40;11.13;;;2.70;;
77581;SDS011;66726;52.388;9.986;2023-03-15T01:43:15;12.27;;;2.73;;
77581;SDS011;66726;52.388;9.986;2023-03-15T01:45:59;10.37;;;2.93;;
77581;SDS011;66726;52.388;9.986;2023-03-15T01:48:42;9.83;;;2.83;;
77581;SDS011;66726;52.388;9.986;2023-03-15T01:51:22;9.33;;;2.70;;
77581;SDS011;66726;52.388;9.986;2023-03-15T01:53:59;7.57;;;2.60;;
77581;SDS011;66726;52.388;9.986;2023-03-15T01:56:35;8.33;;;3.00;;
77581;SDS011;66726;52.388;9.986;2023-03-15T01:59:13;10.13;;;3.33;;
77581;SDS011;66726;52.388;9.986;2023-03-15T02:01:52;11.67;;;3.30;;
77581;SDS011;66726;52.388;9.986;2023-03-15T02:04:29;6.60;;;2.67;;
77581;SDS011;66726;52.388;9.986;2023-03-15T02:07:11;14.43;;;3.20;;
77581;SDS011;66726;52.388;9.986;2023-03-15T02:09:49;9.50;;;2.50;;
77581;SDS011;66726;52.388;9.986;2023-03-15T02:12:30;13.23;;;2.90;;
77581;SDS011;66726;52.388;9.986;2023-03-15T02:15:10;11.87;;;2.97;;
77581;SDS011;66726;52.388;9.986;2023-03-15T02:17:44;11.10;;;3.40;;
77581;SDS011;66726;52.388;9.986;2023-03-15T02:20:20;10.10;;;3.37;;
77581;SDS011;66726;52.388;9.986;2023-03-15T02:23:02;12.17;;;4.20;;
77581;SDS011;66726;52.388;9.986;2023-03-15T02:25:40;8.57;;;3.20;;
77581;SDS011;66726;52.388;9.986;2023-03-15T02:28:21;18.87;;;4.33;;
77581;SDS011;66726;52.388;9.986;2023-03-15T02:30:53;13.37;;;3.97;;
77581;SDS011;66726;52.388;9.986;2023-03-15T02:33:27;9.80;;;3.27;;
77581;SDS011;66726;52.388;9.986;2023-03-15T02:36:06;9.57;;;3.27;;
77581;SDS011;66726;52.388;9.986;2023-03-15T02:38:47;10.03;;;3.30;;
77581;SDS011;66726;52.388;9.986;2023-03-15T02:41:20;12.67;;;2.80;;
77581;SDS011;66726;52.388;9.986;2023-03-15T02:44:00;10.07;;;2.63;;
77581;SDS011;66726;52.388;9.986;2023-03-15T02:46:37;14.37;;;2.80;;
77581;SDS011;66726;52.388;9.986;2023-03-15T02:49:10;9.87;;;2.77;;
77581;SDS011;66726;52.388;9.986;2023-03-15T02:51:43;12.80;;;2.93;;
77581;SDS011;66726;52.388;9.986;2023-03-15T02:54:15;7.43;;;2.50;;
77581;SDS011;66726;52.388;9.986;2023-03-15T02:56:46;12.20;;;2.77;;
77581;SDS011;66726;52.388;9.986;2023-03-15T02:59:20;9.93;;;2.30;;
77581;SDS011;66726;52.388;9.986;2023-03-15T03:01:51;9.40;;;2.40;;
77581;SDS011;66726;52.388;9.986;2023-03-15T03:04:23;7.60;;;2.30;;
77581;SDS011;66726;52.388;9.986;2023-03-15T03:06:55;10.70;;;2.67;;
77581;SDS011;66726;52.388;9.986;2023-03-15T03:09:27;8.50;;;2.63;;
77581;SDS011;66726;52.388;9.986;2023-03-15T03:11:59;8.43;;;2.17;;
77581;SDS011;66726;52.388;9.986;2023-03-15T03:14:32;10.83;;;2.53;;
77581;SDS011;66726;52.388;9.986;2023-03-15T03:17:04;9.03;;;2.70;;
77581;SDS011;66726;52.388;9.986;2023-03-15T03:19:36;12.27;;;2.60;;
77581;SDS011;66726;52.388;9.986;2023-03-15T03:22:07;14.20;;;3.30;;
77581;SDS011;66726;52.388;9.986;2023-03-15T03:24:39;12.43;;;2.93;;
77581;SDS011;66726;52.388;9.986;2023-03-15T03:27:12;11.73;;;3.07;;
77581;SDS011;66726;52.388;9.986;2023-03-15T03:29:46;9.63;;;2.73;;
77581;SDS011;66726;52.388;9.986;2023-03-15T03:32:18;12.33;;;2.87;;
77581;SDS011;66726;52.388;9.986;2023-03-15T03:34:50;11.20;;;2.77;;
77581;SDS011;66726;52.388;9.986;2023-03-15T03:37:22;12.60;;;3.03;;
77581;SDS011;66726;52.388;9.986;2023-03-15T03:39:56;12.73;;;2.77;;
77581;SDS011;66726;52.388;9.986;2023-03-15T03:42:30;7.07;;;3.27;;
77581;SDS011;66726;52.388;9.986;2023-03-15T03:45:03;8.67;;;3.10;;
77581;SDS011;66726;52.388;9.986;2023-03-15T03:47:35;10.93;;;2.50;;
77581;SDS011;66726;52.388;9.986;2023-03-15T03:50:08;10.10;;;3.00;;
77581;SDS011;66726;52.388;9.986;2023-03-15T03:52:41;11.03;;;3.13;;
77581;SDS011;66726;52.388;9.986;2023-03-15T03:55:13;7.27;;;3.07;;
77581;SDS011;66726;52.388;9.986;2023-03-15T03:57:45;8.90;;;3.40;;
77581;SDS011;66726;52.388;9.986;2023-03-15T04:00:19;7.57;;;3.67;;
77581;SDS011;66726;52.388;9.986;2023-03-15T04:02:51;11.63;;;3.60;;
77581;SDS011;66726;52.388;9.986;2023-03-15T04:05:23;8.20;;;3.23;;
77581;SDS011;66726;52.388;9.986;2023-03-15T04:07:55;7.17;;;3.50;;
77581;SDS011;66726;52.388;9.986;2023-03-15T04:10:26;8.77;;;3.83;;
77581;SDS011;66726;52.388;9.986;2023-03-15T04:13:00;12.80;;;4.03;;
77581;SDS011;66726;52.388;9.986;2023-03-15T04:15:33;9.80;;;3.50;;
77581;SDS011;66726;52.388;9.986;2023-03-15T04:18:05;10.53;;;3.53;;
77581;SDS011;66726;52.388;9.986;2023-03-15T04:20:38;12.20;;;3.67;;
77581;SDS011;66726;52.388;9.986;2023-03-15T04:23:12;12.20;;;4.20;;
77581;SDS011;66726;52.388;9.986;2023-03-15T04:25:46;10.80;;;4.00;;
77581;SDS011;66726;52.388;9.986;2023-03-15T04:28:20;9.00;;;3.37;;
77581;SDS011;66726;52.388;9.986;2023-03-15T04:30:53;11.83;;;3.70;;
77581;SDS011;66726;52.388;9.986;2023-03-15T04:33:25;11.17;;;4.47;;
77581;SDS011;66726;52.388;9.986;2023-03-15T04:35:57;13.27;;;5.00;;
77581;SDS011;66726;52.388;9.986;2023-03-15T04:38:29;11.60;;;4.93;;
77581;SDS011;66726;52.388;9.986;2023-03-15T04:41:01;11.93;;;4.57;;
77581;SDS011;66726;52.388;9.986;2023-03-15T04:43:36;10.83;;;5.07;;
77581;SDS011;66726;52.388;9.986;2023-03-15T04:46:09;11.97;;;5.20;;
77581;SDS011;66726;52.388;9.986;2023-03-15T04:48:41;9.60;;;4.97;;
77581;SDS011;66726;52.388;9.986;2023-03-15T04:51:13;11.23;;;5.17;;
77581;SDS011;66726;52.388;9.986;2023-03-15T04:53:45;9.00;;;4.40;;
77581;SDS011;66726;52.388;9.986;2023-03-15T04:56:17;13.87;;;5.23;;
77581;SDS011;66726;52.388;9.986;2023-03-15T04:58:49;10.67;;;4.50;;
77581;SDS011;66726;52.388;9.986;2023-03-15T05:01:24;13.33;;;4.60;;
77581;SDS011;66726;52.388;9.986;2023-03-15T05:03:58;10.23;;;4.60;;
77581;SDS011;66726;52.388;9.986;2023-03-15T05:06:31;12.00;;;4.90;;
77581;SDS011;66726;52.388;9.986;2023-03-15T05:09:03;6.97;;;4.43;;
77581;SDS011;66726;52.388;9.986;2023-03-15T05:11:35;10.30;;;4.63;;
77581;SDS011;66726;52.388;9.986;2023-03-15T05:14:06;9.37;;;4.63;;
77581;SDS011;66726;52.388;9.986;2023-03-15T05:16:40;8.43;;;4.50;;
77581;SDS011;66726;52.388;9.986;2023-03-15T05:19:13;8.97;;;4.70;;
77581;SDS011;66726;52.388;9.986;2023-03-15T05:21:46;9.87;;;4.90;;
77581;SDS011;66726;52.388;9.986;2023-03-15T05:24:19;8.17;;;4.57;;
77581;SDS011;66726;52.388;9.986;2023-03-15T05:26:51;7.13;;;4.93;;
77581;SDS011;66726;52.388;9.986;2023-03-15T05:29:25;11.17;;;4.57;;
77581;SDS011;66726;52.388;9.986;2023-03-15T05:31:58;12.20;;;4.93;;
77581;SDS011;66726;52.388;9.986;2023-03-15T05:34:30;9.43;;;4.83;;
77581;SDS011;66726;52.388;9.986;2023-03-15T05:37:02;9.77;;;4.57;;
77581;SDS011;66726;52.388;9.986;2023-03-15T05:39:34;8.47;;;5.00;;
77581;SDS011;66726;52.388;9.986;2023-03-15T05:42:07;8.73;;;4.80;;
77581;SDS011;66726;52.388;9.986;2023-03-15T05:44:39;7.53;;;4.67;;
77581;SDS011;66726;52.388;9.986;2023-03-15T05:47:12;11.33;;;4.97;;
77581;SDS011;66726;52.388;9.986;2023-03-15T05:49:44;9.53;;;4.73;;
77581;SDS011;66726;52.388;9.986;2023-03-15T05:52:17;8.90;;;5.20;;
77581;SDS011;66726;52.388;9.986;2023-03-15T05:54:49;5.70;;;4.73;;
77581;SDS011;66726;52.388;9.986;2023-03-15T05:57:20;8.60;;;5.40;;
77581;SDS011;66726;52.388;9.986;2023-03-15T05:59:52;9.33;;;5.10;;
77581;SDS011;66726;52.388;9.986;2023-03-15T06:02:25;7.67;;;4.63;;
77581;SDS011;66726;52.388;9.986;2023-03-15T06:04:57;7.73;;;4.57;;
77581;SDS011;66726;52.388;9.986;2023-03-15T06:07:29;8.27;;;4.47;;
77581;SDS011;66726;52.388;9.986;2023-03-15T06:10:01;7.07;;;4.40;;
77581;SDS011;66726;52.388;9.986;2023-03-15T06:12:34;9.97;;;5.80;;
77581;SDS011;66726;52.388;9.986;2023-03-15T06:15:06;5.93;;;4.60;;
77581;SDS011;66726;52.388;9.986;2023-03-15T06:17:39;7.40;;;4.97;;
77581;SDS011;66726;52.388;9.986;2023-03-15T06:20:11;8.87;;;4.93;;
77581;SDS011;66726;52.388;9.986;2023-03-15T06:22:45;8.20;;;4.57;;
77581;SDS011;66726;52.388;9.986;2023-03-15T06:25:17;6.70;;;4.70;;
77581;SDS011;66726;52.388;9.986;2023-03-15T06:27:49;6.27;;;4.57;;
77581;SDS011;66726;52.388;9.986;2023-03-15T06:30:20;7.57;;;5.20;;
77581;SDS011;66726;52.388;9.986;2023-03-15T06:32:54;8.83;;;4.90;;
77581;SDS011;66726;52.388;9.986;2023-03-15T06:35:26;7.67;;;4.93;;
77581;SDS011;66726;52.388;9.986;2023-03-15T06:37:58;8.83;;;5.43;;
77581;SDS011;66726;52.388;9.986;2023-03-15T06:40:30;8.60;;;6.03;;
77581;SDS011;66726;52.388;9.986;2023-03-15T06:43:01;7.83;;;5.27;;
77581;SDS011;66726;52.388;9.986;2023-03-15T06:45:34;7.00;;;5.77;;
77581;SDS011;66726;52.388;9.986;2023-03-15T06:48:07;12.40;;;7.07;;
77581;SDS011;66726;52.388;9.986;2023-03-15T06:50:39;11.20;;;5.80;;
77581;SDS011;66726;52.388;9.986;2023-03-15T06:53:13;13.83;;;6.57;;
77581;SDS011;66726;52.388;9.986;2023-03-15T06:55:45;10.60;;;6.50;;
77581;SDS011;66726;52.388;9.986;2023-03-15T06:58:17;7.20;;;5.53;;
77581;SDS011;66726;52.388;9.986;2023-03-15T07:00:49;7.73;;;5.63;;
77581;SDS011;66726;52.388;9.986;2023-03-15T07:03:22;9.50;;;5.30;;
77581;SDS011;66726;52.388;9.986;2023-03-15T07:05:54;8.30;;;6.03;;
77581;SDS011;66726;52.388;9.986;2023-03-15T07:08:26;8.03;;;5.53;;
77581;SDS011;66726;52.388;9.986;2023-03-15T07:10:58;8.80;;;5.77;;
77581;SDS011;66726;52.388;9.986;2023-03-15T07:13:33;11.40;;;6.17;;
77581;SDS011;66726;52.388;9.986;2023-03-15T07:16:05;11.03;;;6.40;;
77581;SDS011;66726;52.388;9.986;2023-03-15T07:18:38;10.97;;;7.20;;
77581;SDS011;66726;52.388;9.986;2023-03-15T07:21:09;11.27;;;8.00;;
77581;SDS011;66726;52.388;9.986;2023-03-15T07:23:41;11.57;;;7.10;;
77581;SDS011;66726;52.388;9.986;2023-03-15T07:26:14;9.47;;;7.13;;
77581;SDS011;66726;52.388;9.986;2023-03-15T07:28:46;9.80;;;7.00;;
77581;SDS011;66726;52.388;9.986;2023-03-15T07:31:18;10.03;;;7.97;;
77581;SDS011;66726;52.388;9.986;2023-03-15T07:33:51;12.20;;;8.93;;
77581;SDS011;66726;52.388;9.986;2023-03-15T07:36:23;9.50;;;8.10;;
77581;SDS011;66726;52.388;9.986;2023-03-15T07:38:54;11.40;;;8.60;;
77581;SDS011;66726;52.388;9.986;2023-03-15T07:41:26;13.03;;;8.57;;
77581;SDS011;66726;52.388;9.986;2023-03-15T07:43:58;13.30;;;9.17;;
77581;SDS011;66726;52.388;9.986;2023-03-15T07:46:30;11.93;;;8.13;;
77581;SDS011;66726;52.388;9.986;2023-03-15T07:49:03;13.77;;;8.50;;
77581;SDS011;66726;52.388;9.986;2023-03-15T07:51:35;19.60;;;8.13;;
77581;SDS011;66726;52.388;9.986;2023-03-15T07:54:07;11.93;;;7.63;;
77581;SDS011;66726;52.388;9.986;2023-03-15T07:56:39;12.50;;;8.20;;
77581;SDS011;66726;52.388;9.986;2023-03-15T07:59:11;11.40;;;8.27;;
77581;SDS011;66726;52.388;9.986;2023-03-15T08:01:42;11.93;;;7.80;;
77581;SDS011;66726;52.388;9.986;2023-03-15T08:04:16;15.60;;;9.00;;
77581;SDS011;66726;52.388;9.986;2023-03-15T08:06:48;14.37;;;9.63;;
77581;SDS011;66726;52.388;9.986;2023-03-15T08:09:19;13.80;;;9.33;;
77581;SDS011;66726;52.388;9.986;2023-03-15T08:11:51;17.27;;;9.57;;
77581;SDS011;66726;52.388;9.986;2023-03-15T08:14:23;11.20;;;8.37;;
77581;SDS011;66726;52.388;9.986;2023-03-15T08:16:56;12.07;;;8.70;;
77581;SDS011;66726;52.388;9.986;2023-03-15T08:19:29;12.97;;;8.07;;
77581;SDS011;66726;52.388;9.986;2023-03-15T08:22:01;12.00;;;7.90;;
77581;SDS011;66726;52.388;9.986;2023-03-15T08:24:33;12.50;;;7.43;;
77581;SDS011;66726;52.388;9.986;2023-03-15T08:27:05;8.67;;;6.10;;
77581;SDS011;66726;52.388;9.986;2023-03-15T08:29:37;9.43;;;6.07;;
77581;SDS011;66726;52.388;9.986;2023-03-15T08:32:09;8.63;;;5.73;;
77581;SDS011;66726;52.388;9.986;2023-03-15T08:34:43;8.53;;;6.30;;
77581;SDS011;66726;52.388;9.986;2023-03-15T08:37:18;12.17;;;7.17;;
77581;SDS011;66726;52.388;9.986;2023-03-15T08:39:50;9.73;;;8.40;;
77581;SDS011;66726;52.388;9.986;2023-03-15T08:42:26;12.33;;;8.67;;
77581;SDS011;66726;52.388;9.986;2023-03-15T08:44:58;13.00;;;9.10;;
77581;SDS011;66726;52.388;9.986;2023-03-15T08:47:32;13.57;;;7.93;;
77581;SDS011;66726;52.388;9.986;2023-03-15T08:50:06;12.20;;;7.37;;
77581;SDS011;66726;52.388;9.986;2023-03-15T08:52:41;8.33;;;5.30;;
77581;SDS011;66726;52.388;9.986;2023-03-15T08:55:13;9.10;;;5.23;;
77581;SDS011;66726;52.388;9.986;2023-03-15T08:57:45;9.50;;;4.07;;
77581;SDS011;66726;52.388;9.986;2023-03-15T09:00:17;9.43;;;4.00;;
77581;SDS011;66726;52.388;9.986;2023-03-15T09:02:49;6.80;;;3.80;;
77581;SDS011;66726;52.388;9.986;2023-03-15T09:05:23;9.87;;;5.17;;
77581;SDS011;66726;52.388;9.986;2023-03-15T09:07:55;10.57;;;4.20;;
77581;SDS011;66726;52.388;9.986;2023-03-15T09:10:27;9.77;;;4.37;;
77581;SDS011;66726;52.388;9.986;2023-03-15T09:12:59;11.60;;;4.80;;
77581;SDS011;66726;52.388;9.986;2023-03-15T09:15:31;10.97;;;6.00;;
77581;SDS011;66726;52.388;9.986;2023-03-15T09:18:03;7.03;;;4.57;;
77581;SDS011;66726;52.388;9.986;2023-03-15T09:20:36;9.13;;;5.00;;
77581;SDS011;66726;52.388;9.986;2023-03-15T09:23:08;11.23;;;4.10;;
77581;SDS011;66726;52.388;9.986;2023-03-15T09:25:40;11.13;;;3.00;;
77581;SDS011;66726;52.388;9.986;2023-03-15T09:28:12;8.57;;;3.30;;
77581;SDS011;66726;52.388;9.986;2023-03-15T09:30:44;12.07;;;3.30;;
77581;SDS011;66726;52.388;9.986;2023-03-15T09:33:16;10.33;;;2.90;;
77581;SDS011;66726;52.388;9.986;2023-03-15T09:35:50;10.20;;;3.00;;
77581;SDS011;66726;52.388;9.986;2023-03-15T09:38:24;11.07;;;3.40;;
77581;SDS011;66726;52.388;9.986;2023-03-15T09:40:56;9.97;;;4.17;;
77581;SDS011;66726;52.388;9.986;2023-03-15T09:46:38;9.83;;;3.07;;
77581;SDS011;66726;52.388;9.986;2023-03-15T09:49:24;11.40;;;3.00;;
77581;SDS011;66726;52.388;9.986;2023-03-15T09:52:15;11.83;;;3.30;;
77581;SDS011;66726;52.388;9.986;2023-03-15T09:54:55;8.70;;;3.30;;
77581;SDS011;66726;52.388;9.986;2023-03-15T09:57:34;13.93;;;2.73;;
77581;SDS011;66726;52.388;9.986;2023-03-15T10:00:14;15.53;;;2.63;;
77581;SDS011;66726;52.388;9.986;2023-03-15T10:02:58;14.40;;;4.40;;
77581;SDS011;66726;52.388;9.986;2023-03-15T10:05:36;10.20;;;3.27;;
77581;SDS011;66726;52.388;9.986;2023-03-15T10:08:13;5.73;;;2.43;;
77581;SDS011;66726;52.388;9.986;2023-03-15T10:10:48;7.50;;;2.20;;
77581;SDS011;66726;52.388;9.986;2023-03-15T10:13:35;11.17;;;2.47;;
77581;SDS011;66726;52.388;9.986;2023-03-15T10:16:27;10.40;;;3.37;;
77581;SDS011;66726;52.388;9.986;2023-03-15T10:19:23;8.60;;;2.47;;
77581;SDS011;66726;52.388;9.986;2023-03-15T10:22:11;5.37;;;2.20;;
77581;SDS011;66726;52.388;9.986;2023-03-15T10:24:53;9.90;;;3.07;;
77581;SDS011;66726;52.388;9.986;2023-03-15T10:27:40;5.43;;;2.20;;
77581;SDS011;66726;52.388;9.986;2023-03-15T10:30:19;8.93;;;2.23;;
77581;SDS011;66726;52.388;9.986;2023-03-15T10:32:54;13.70;;;2.67;;
77581;SDS011;66726;52.388;9.986;2023-03-15T10:35:29;8.03;;;2.00;;
77581;SDS011;66726;52.388;9.986;2023-03-15T10:38:01;14.00;;;5.63;;
77581;SDS011;66726;52.388;9.986;2023-03-15T10:40:43;10.03;;;2.40;;
77581;SDS011;66726;52.388;9.986;2023-03-15T10:43:18;8.90;;;2.23;;
77581;SDS011;66726;52.388;9.986;2023-03-15T10:45:58;6.83;;;2.70;;
77581;SDS011;66726;52.388;9.986;2023-03-15T10:48:35;5.33;;;2.47;;
77581;SDS011;66726;52.388;9.986;2023-03-15T10:51:19;7.67;;;1.93;;
77581;SDS011;66726;52.388;9.986;2023-03-15T10:53:55;6.77;;;2.43;;
77581;SDS011;66726;52.388;9.986;2023-03-15T10:56:35;9.50;;;2.40;;
77581;SDS011;66726;52.388;9.986;2023-03-15T10:59:14;10.50;;;1.97;;
77581;SDS011;66726;52.388;9.986;2023-03-15T11:01:50;8.87;;;2.60;;
77581;SDS011;66726;52.388;9.986;2023-03-15T11:04:41;5.37;;;1.90;;
77581;SDS011;66726;52.388;9.986;2023-03-15T11:07:17;5.13;;;1.70;;
77581;SDS011;66726;52.388;9.986;2023-03-15T11:09:50;5.03;;;1.63;;
77581;SDS011;66726;52.388;9.986;2023-03-15T11:12:27;4.07;;;2.10;;
77581;SDS011;66726;52.388;9.986;2023-03-15T11:15:02;5.10;;;1.83;;
77581;SDS011;66726;52.388;9.986;2023-03-15T11:17:41;4.03;;;1.50;;
77581;SDS011;66726;52.388;9.986;2023-03-15T11:20:20;8.57;;;2.10;;
77581;SDS011;66726;52.388;9.986;2023-03-15T11:22:57;6.30;;;1.93;;
77581;SDS011;66726;52.388;9.986;2023-03-15T11:25:40;17.47;;;9.30;;
77581;SDS011;66726;52.388;9.986;2023-03-15T11:28:16;12.07;;;3.07;;
77581;SDS011;66726;52.388;9.986;2023-03-15T11:30:52;6.37;;;2.30;;
77581;SDS011;66726;52.388;9.986;2023-03-15T11:33:31;6.53;;;1.80;;
77581;SDS011;66726;52.388;9.986;2023-03-15T11:36:11;6.17;;;2.00;;
77581;SDS011;66726;52.388;9.986;2023-03-15T11:38:47;8.03;;;1.97;;
77581;SDS011;66726;52.388;9.986;2023-03-15T11:41:25;6.17;;;2.10;;
77581;SDS011;66726;52.388;9.986;2023-03-15T11:44:08;5.67;;;2.10;;
77581;SDS011;66726;52.388;9.986;2023-03-15T11:46:49;4.53;;;2.00;;
77581;SDS011;66726;52.388;9.986;2023-03-15T11:49:30;5.77;;;1.80;;
77581;SDS011;66726;52.388;9.986;2023-03-15T11:52:09;5.17;;;2.33;;
77581;SDS011;66726;52.388;9.986;2023-03-15T11:54:42;6.10;;;2.10;;
77581;SDS011;66726;52.388;9.986;2023-03-15T11:57:35;9.07;;;2.03;;
77581;SDS011;66726;52.388;9.986;2023-03-15T12:03:31;4.40;;;1.97;;
77581;SDS011;66726;52.388;9.986;2023-03-15T12:06:09;6.00;;;1.90;;
77581;SDS011;66726;52.388;9.986;2023-03-15T12:08:54;8.73;;;2.30;;
77581;SDS011;66726;52.388;9.986;2023-03-15T12:11:39;8.70;;;2.27;;
77581;SDS011;66726;52.388;9.986;2023-03-15T12:14:24;4.83;;;1.70;;
77581;SDS011;66726;52.388;9.986;2023-03-15T12:20:12;6.17;;;1.80;;
77581;SDS011;66726;52.388;9.986;2023-03-15T12:23:08;6.17;;;1.87;;
77581;SDS011;66726;52.388;9.986;2023-03-15T12:25:57;5.87;;;1.90;;
77581;SDS011;66726;52.388;9.986;2023-03-15T12:28:37;5.77;;;2.10;;
77581;SDS011;66726;52.388;9.986;2023-03-15T12:31:16;8.33;;;3.10;;
77581;SDS011;66726;52.388;9.986;2023-03-15T12:33:50;3.47;;;1.90;;
77581;SDS011;66726;52.388;9.986;2023-03-15T12:36:31;4.87;;;1.57;;
77581;SDS011;66726;52.388;9.986;2023-03-15T12:39:19;5.70;;;1.73;;
77581;SDS011;66726;52.388;9.986;2023-03-15T12:42:11;4.93;;;1.70;;
77581;SDS011;66726;52.388;9.986;2023-03-15T12:45:32;4.53;;;1.63;;
77581;SDS011;66726;52.388;9.986;2023-03-15T12:48:19;2.50;;;1.50;;
77581;SDS011;66726;52.388;9.986;2023-03-15T12:51:02;3.67;;;1.57;;
77581;SDS011;66726;52.388;9.986;2023-03-15T12:53:41;2.83;;;1.60;;
77581;SDS011;66726;52.388;9.986;2023-03-15T13:02:24;1.87;;;1.30;;
77581;SDS011;66726;52.388;9.986;2023-03-15T13:05:17;3.33;;;1.60;;
77581;SDS011;66726;52.388;9.986;2023-03-15T13:07:56;6.90;;;1.60;;
77581;SDS011;66726;52.388;9.986;2023-03-15T13:10:45;5.73;;;1.60;;
77581;SDS011;66726;52.388;9.986;2023-03-15T13:13:35;3.83;;;1.53;;
77581;SDS011;66726;52.388;9.986;2023-03-15T13:16:25;3.20;;;1.40;;
77581;SDS011;66726;52.388;9.986;2023-03-15T13:19:12;3.20;;;1.20;;
77581;SDS011;66726;52.388;9.986;2023-03-15T13:21:50;2.73;;;1.30;;
77581;SDS011;66726;52.388;9.986;2023-03-15T13:24:37;1.83;;;1.20;;
77581;SDS011;66726;52.388;9.986;2023-03-15T13:27:21;1.03;;;0.93;;
77581;SDS011;66726;52.388;9.986;2023-03-15T13:30:30;2.30;;;1.10;;
77581;SDS011;66726;52.388;9.986;2023-03-15T13:35:59;3.07;;;1.23;;
77581;SDS011;66726;52.388;9.986;2023-03-15T13:38:38;1.07;;;0.87;;
77581;SDS011;66726;52.388;9.986;2023-03-15T13:41:17;1.27;;;1.00;;
77581;SDS011;66726;52.388;9.986;2023-03-15T13:43:53;2.03;;;1.10;;
77581;SDS011;66726;52.388;9.986;2023-03-15T13:46:30;1.23;;;1.00;;
77581;SDS011;66726;52.388;9.986;2023-03-15T13:49:02;2.00;;;1.10;;
77581;SDS011;66726;52.388;9.986;2023-03-15T13:51:37;2.30;;;1.07;;
77581;SDS011;66726;52.388;9.986;2023-03-15T13:54:12;4.07;;;1.27;;
77581;SDS011;66726;52.388;9.986;2023-03-15T13:56:56;2.47;;;1.10;;
77581;SDS011;66726;52.388;9.986;2023-03-15T13:59:33;4.77;;;1.30;;
77581;SDS011;66726;52.388;9.986;2023-03-15T14:02:12;2.13;;;1.10;;
77581;SDS011;66726;52.388;9.986;2023-03-15T14:04:50;3.57;;;1.23;;
77581;SDS011;66726;52.388;9.986;2023-03-15T14:07:31;1.23;;;1.00;;
77581;SDS011;66726;52.388;9.986;2023-03-15T14:10:06;3.33;;;1.50;;
77581;SDS011;66726;52.388;9.986;2023-03-15T14:13:14;4.03;;;1.43;;
77581;SDS011;66726;52.388;9.986;2023-03-15T14:15:54;4.20;;;1.37;;
77581;SDS011;66726;52.388;9.986;2023-03-15T14:18:31;2.63;;;1.30;;
77581;SDS011;66726;52.388;9.986;2023-03-15T14:21:05;4.03;;;1.40;;
77581;SDS011;66726;52.388;9.986;2023-03-15T14:23:43;3.97;;;1.40;;
77581;SDS011;66726;52.388;9.986;2023-03-15T14:26:16;4.03;;;1.27;;
77581;SDS011;66726;52.388;9.986;2023-03-15T14:28:56;4.57;;;1.10;;
77581;SDS011;66726;52.388;9.986;2023-03-15T14:31:33;4.60;;;1.33;;
77581;SDS011;66726;52.388;9.986;2023-03-15T14:34:16;3.60;;;1.30;;
77581;SDS011;66726;52.388;9.986;2023-03-15T14:36:59;3.10;;;1.03;;
77581;SDS011;66726;52.388;9.986;2023-03-15T14:40:02;6.10;;;1.37;;
77581;SDS011;66726;52.388;9.986;2023-03-15T14:42:40;3.47;;;1.30;;
77581;SDS011;66726;52.388;9.986;2023-03-15T14:45:14;4.50;;;1.80;;
77581;SDS011;66726;52.388;9.986;2023-03-15T14:47:48;3.60;;;1.37;;
77581;SDS011;66726;52.388;9.986;2023-03-15T14:50:25;2.77;;;1.13;;
77581;SDS011;66726;52.388;9.986;2023-03-15T14:53:00;2.00;;;1.10;;
77581;SDS011;66726;52.388;9.986;2023-03-15T14:55:34;1.67;;;1.10;;
77581;SDS011;66726;52.388;9.986;2023-03-15T14:58:08;4.27;;;1.30;;
77581;SDS011;66726;52.388;9.986;2023-03-15T15:00:46;2.63;;;1.50;;
77581;SDS011;66726;52.388;9.986;2023-03-15T15:03:22;2.97;;;1.10;;
77581;SDS011;66726;52.388;9.986;2023-03-15T15:06:03;6.57;;;2.90;;
77581;SDS011;66726;52.388;9.986;2023-03-15T15:08:38;4.10;;;1.20;;
77581;SDS011;66726;52.388;9.986;2023-03-15T15:11:13;2.53;;;1.40;;
77581;SDS011;66726;52.388;9.986;2023-03-15T15:13:45;2.37;;;1.30;;
77581;SDS011;66726;52.388;9.986;2023-03-15T15:16:18;4.53;;;1.40;;
77581;SDS011;66726;52.388;9.986;2023-03-15T15:18:50;3.87;;;1.50;;
77581;SDS011;66726;52.388;9.986;2023-03-15T15:21:22;2.63;;;1.30;;
77581;SDS011;66726;52.388;9.986;2023-03-15T15:24:00;6.60;;;1.60;;
77581;SDS011;66726;52.388;9.986;2023-03-15T15:26:37;3.13;;;1.87;;
77581;SDS011;66726;52.388;9.986;2023-03-15T15:29:10;7.00;;;2.50;;
77581;SDS011;66726;52.388;9.986;2023-03-15T15:31:45;4.50;;;1.50;;
77581;SDS011;66726;52.388;9.986;2023-03-15T15:34:17;6.13;;;1.77;;
77581;SDS011;66726;52.388;9.986;2023-03-15T15:36:49;4.33;;;1.60;;
77581;SDS011;66726;52.388;9.986;2023-03-15T15:39:22;4.33;;;1.50;;
77581;SDS011;66726;52.388;9.986;2023-03-15T15:41:54;3.83;;;1.40;;
77581;SDS011;66726;52.388;9.986;2023-03-15T15:44:26;4.70;;;1.43;;
77581;SDS011;66726;52.388;9.986;2023-03-15T15:47:00;3.23;;;1.37;;
77581;SDS011;66726;52.388;9.986;2023-03-15T15:49:31;5.10;;;1.40;;
77581;SDS011;66726;52.388;9.986;2023-03-15T15:52:07;3.77;;;1.40;;